Time;durP1;ratioP1;P1;durP2;ratioP2;P2;SDS_P1;SDS_P2;PMS_P1;PMS_P2;Temp;Humidity;BMP_temperature;BMP_pressure;BME280_temperature;BME280_humidity;BME280_pressure;Samples;Min_cycle;Max_cycle;Signal;HPM_P1;HPM_P2
2023/10/23 00:02:25;;;;;;;;;;;16.10;90.00;;;;;;4143183;28;20015;-50
2023/10/23 00:05:08;;;;;;;;;;;16.10;90.00;;;;;;4156421;28;19936;-51
2023/10/23 00:07:49;;;;;;;;;;;16.10;90.00;;;;;;4157309;28;19932;-54
2023/10/23 00:10:30;;;;;;;;;;;16.00;90.40;;;;;;4156880;28;19935;-49
2023/10/23 00:13:11;;;;;;;;;;;16.00;90.00;;;;;;4146796;28;20301;-50
2023/10/23 00:15:51;;;;;;;;;;;16.00;90.00;;;;;;4140590;28;19932;-50
2023/10/23 00:18:32;;;;;;;;;;;16.00;90.00;;;;;;4156695;28;20447;-50
2023/10/23 00:21:15;;;;;;;;;;;16.00;90.00;;;;;;4142680;28;20401;-53
2023/10/23 00:23:55;;;;;;;;;;;16.00;90.00;;;;;;4156292;28;19932;-50
2023/10/23 00:26:36;;;;;;;;;;;16.00;90.40;;;;;;4157736;28;20333;-50
2023/10/23 00:29:16;;;;;;;;;;;16.00;90.10;;;;;;4156160;28;19979;-49
2023/10/23 00:31:57;;;;;;;;;;;16.00;90.10;;;;;;4140902;28;19936;-51
2023/10/23 00:34:38;;;;;;;;;;;16.00;90.10;;;;;;4140152;28;20059;-53
2023/10/23 00:37:20;;;;;;;;;;;16.00;90.10;;;;;;4141034;28;20019;-50
2023/10/23 00:40:01;;;;;;;;;;;16.00;90.10;;;;;;4145616;28;19948;-53
2023/10/23 00:42:41;;;;;;;;;;;15.90;90.20;;;;;;4157252;28;19979;-53
2023/10/23 00:45:22;;;;;;;;;;;15.90;90.20;;;;;;4156114;28;19936;-50
2023/10/23 00:48:03;;;;;;;;;;;15.90;90.20;;;;;;4156152;28;19932;-50
2023/10/23 00:50:44;;;;;;;;;;;16.00;90.20;;;;;;4155557;28;20282;-50
2023/10/23 00:53:27;;;;;;;;;;;15.90;90.20;;;;;;4140691;28;19932;-50
2023/10/23 00:56:09;;;;;;;;;;;15.90;90.20;;;;;;4164855;28;20353;-50
2023/10/23 00:58:50;;;;;;;;;;;15.90;90.20;;;;;;4156924;28;20098;-52
2023/10/23 01:01:32;;;;;;;;;;;15.90;90.60;;;;;;4156845;28;20014;-48
2023/10/23 01:04:13;;;;;;;;;;;15.90;90.20;;;;;;4126880;28;19933;-53
2023/10/23 01:06:53;;;;;;;;;;;15.90;90.20;;;;;;4137271;28;19932;-49
2023/10/23 01:09:36;;;;;;;;;;;15.90;90.20;;;;;;4152993;28;19936;-49
2023/10/23 01:12:16;;;;;;;;;;;15.90;90.20;;;;;;4155207;28;20423;-50
2023/10/23 01:14:57;;;;;;;;;;;15.90;90.20;;;;;;4157032;28;19986;-49
2023/10/23 01:17:38;;;;;;;;;;;15.90;90.60;;;;;;4155962;28;19932;-49
2023/10/23 01:20:19;;;;;;;;;;;15.90;90.20;;;;;;4155400;28;20018;-51
2023/10/23 01:23:01;;;;;;;;;;;15.90;90.20;;;;;;4140334;28;19936;-49
2023/10/23 01:25:43;;;;;;;;;;;15.90;90.20;;;;;;4156219;28;20393;-52
2023/10/23 01:28:24;;;;;;;;;;;15.90;90.20;;;;;;4139074;28;20266;-49
2023/10/23 01:31:05;;;;;;;;;;;15.90;90.20;;;;;;4138068;28;19932;-52
2023/10/23 01:33:45;;;;;;;;;;;15.80;90.20;;;;;;4141568;28;20048;-50
2023/10/23 01:36:26;;;;;;;;;;;15.80;90.20;;;;;;4155578;28;19971;-51
2023/10/23 01:39:07;;;;;;;;;;;15.80;90.20;;;;;;4156411;28;20425;-51
2023/10/23 01:41:49;;;;;;;;;;;15.80;90.20;;;;;;4155776;28;20504;-49
2023/10/23 01:44:31;;;;;;;;;;;15.80;90.60;;;;;;4155811;28;19975;-48
2023/10/23 01:47:12;;;;;;;;;;;15.80;90.20;;;;;;4140568;28;19932;-49
2023/10/23 01:49:52;;;;;;;;;;;15.80;90.20;;;;;;4138716;28;19936;-50
2023/10/23 01:52:33;;;;;;;;;;;15.80;90.20;;;;;;4124655;28;19932;-50
2023/10/23 01:55:14;;;;;;;;;;;15.80;90.20;;;;;;4151956;28;19932;-48
2023/10/23 01:57:58;;;;;;;;;;;15.80;90.20;;;;;;4139022;28;19976;-51
2023/10/23 02:00:39;;;;;;;;;;;15.80;90.10;;;;;;4136758;28;19936;-49
2023/10/23 02:03:20;;;;;;;;;;;15.80;90.10;;;;;;4136784;28;20481;-49
2023/10/23 02:06:00;;;;;;;;;;;15.80;90.20;;;;;;4126287;28;19937;-51
2023/10/23 02:08:41;;;;;;;;;;;15.80;90.10;;;;;;4132904;28;20011;-51
2023/10/23 02:11:22;;;;;;;;;;;15.70;90.10;;;;;;4136832;28;19936;-50
2023/10/23 02:14:04;;;;;;;;;;;15.70;90.10;;;;;;4145964;28;20071;-52
2023/10/23 02:16:45;;;;;;;;;;;15.70;90.10;;;;;;4137405;28;19979;-48
2023/10/23 02:19:26;;;;;;;;;;;15.70;90.10;;;;;;4156097;28;19936;-50
2023/10/23 02:22:06;;;;;;;;;;;15.70;90.10;;;;;;4154639;28;20082;-52
2023/10/23 02:24:47;;;;;;;;;;;15.70;90.10;;;;;;4154909;28;19932;-55
2023/10/23 02:27:28;;;;;;;;;;;15.70;90.50;;;;;;4154556;28;19936;-52
2023/10/23 02:30:11;;;;;;;;;;;15.70;90.10;;;;;;4155672;28;19932;-52
2023/10/23 02:32:53;;;;;;;;;;;15.70;90.10;;;;;;4154829;28;19932;-54
2023/10/23 02:35:36;;;;;;;;;;;15.70;90.10;;;;;;4154925;28;19979;-53
2023/10/23 02:38:16;;;;;;;;;;;15.60;90.00;;;;;;4142034;28;19995;-53
2023/10/23 02:40:57;;;;;;;;;;;15.70;90.00;;;;;;4137836;28;20075;-52
2023/10/23 02:43:38;;;;;;;;;;;15.60;90.00;;;;;;4148097;28;20406;-50
2023/10/23 02:46:20;;;;;;;;;;;15.60;90.00;;;;;;4152643;28;19936;-52
2023/10/23 02:49:02;;;;;;;;;;;15.60;90.00;;;;;;4154410;28;19974;-49
2023/10/23 02:51:43;;;;;;;;;;;15.60;90.00;;;;;;4138126;28;19937;-52
2023/10/23 02:54:24;;;;;;;;;;;15.60;90.00;;;;;;4154677;28;19932;-50
2023/10/23 02:57:06;;;;;;;;;;;15.60;90.00;;;;;;4153985;28;19932;-50
2023/10/23 02:59:48;;;;;;;;;;;15.60;90.00;;;;;;4140123;28;19936;-50
2023/10/23 03:02:30;;;;;;;;;;;15.60;90.00;;;;;;4139211;28;20509;-50
2023/10/23 03:05:11;;;;;;;;;;;15.50;89.90;;;;;;4155281;28;19957;-54
2023/10/23 03:07:51;;;;;;;;;;;15.50;89.90;;;;;;4155160;28;19940;-52
2023/10/23 03:10:32;;;;;;;;;;;15.50;89.90;;;;;;4155324;28;19967;-50
2023/10/23 03:13:13;;;;;;;;;;;15.50;89.90;;;;;;4154073;28;19935;-50
2023/10/23 03:15:53;;;;;;;;;;;15.50;89.90;;;;;;4153898;28;19931;-50
2023/10/23 03:18:36;;;;;;;;;;;15.50;89.90;;;;;;4154246;28;20319;-49
2023/10/23 03:21:17;;;;;;;;;;;15.50;90.00;;;;;;4154456;28;19932;-50
2023/10/23 03:23:57;;;;;;;;;;;15.50;89.90;;;;;;4154608;28;20455;-49
2023/10/23 03:26:38;;;;;;;;;;;15.50;90.00;;;;;;4153819;28;20722;-48
2023/10/23 03:29:20;;;;;;;;;;;15.50;90.00;;;;;;4153912;28;20435;-49
2023/10/23 03:32:01;;;;;;;;;;;15.50;90.30;;;;;;4165079;28;20003;-49
2023/10/23 03:34:44;;;;;;;;;;;15.50;89.90;;;;;;4143516;28;19932;-50
2023/10/23 03:37:24;;;;;;;;;;;15.50;89.90;;;;;;4154985;28;19936;-51
2023/10/23 03:40:09;;;;;;;;;;;15.40;89.80;;;;;;4138470;28;20302;-51
2023/10/23 03:42:50;;;;;;;;;;;15.40;89.90;;;;;;4138680;28;20404;-51
2023/10/23 03:45:35;;;;;;;;;;;15.50;89.90;;;;;;4138707;28;19936;-49
2023/10/23 03:48:16;;;;;;;;;;;15.40;89.80;;;;;;4142873;28;19948;-49
2023/10/23 03:51:01;;;;;;;;;;;15.40;89.90;;;;;;4154891;28;19932;-49
2023/10/23 03:53:41;;;;;;;;;;;15.40;89.80;;;;;;4154324;28;19940;-51
2023/10/23 03:56:22;;;;;;;;;;;15.40;89.80;;;;;;4138442;28;20079;-49
2023/10/23 03:59:03;;;;;;;;;;;15.40;89.80;;;;;;4147508;28;19936;-49
2023/10/23 04:01:44;;;;;;;;;;;15.40;89.80;;;;;;4154721;28;19936;-50
2023/10/23 04:04:24;;;;;;;;;;;15.40;89.90;;;;;;4154047;28;20106;-51
2023/10/23 04:07:07;;;;;;;;;;;15.40;89.90;;;;;;4146307;28;19936;-50
2023/10/23 04:09:47;;;;;;;;;;;15.30;90.00;;;;;;4138517;28;19948;-50
2023/10/23 04:12:28;;;;;;;;;;;15.30;90.00;;;;;;4138245;28;20071;-50
2023/10/23 04:15:09;;;;;;;;;;;15.30;90.00;;;;;;4138057;28;19932;-49
2023/10/23 04:17:49;;;;;;;;;;;15.30;90.00;;;;;;4141985;28;19932;-51
2023/10/23 04:20:31;;;;;;;;;;;15.30;90.00;;;;;;4154135;28;19936;-50
2023/10/23 04:23:13;;;;;;;;;;;15.30;90.00;;;;;;4154240;28;20038;-51
2023/10/23 04:25:54;;;;;;;;;;;15.30;90.00;;;;;;4154007;28;19936;-50
2023/10/23 04:28:36;;;;;;;;;;;15.30;90.00;;;;;;4154361;28;20485;-50
2023/10/23 04:31:16;;;;;;;;;;;15.30;90.00;;;;;;4139011;28;19936;-46
2023/10/23 04:33:57;;;;;;;;;;;15.30;90.00;;;;;;4137654;28;19933;-47
2023/10/23 04:36:38;;;;;;;;;;;15.30;90.00;;;;;;4146690;28;19936;-49
2023/10/23 04:39:20;;;;;;;;;;;15.30;90.00;;;;;;4140799;28;19991;-48
2023/10/23 04:42:01;;;;;;;;;;;15.30;90.00;;;;;;4153141;28;19947;-47
2023/10/23 04:44:42;;;;;;;;;;;15.30;90.00;;;;;;4139174;28;19936;-48
2023/10/23 04:47:22;;;;;;;;;;;15.20;90.00;;;;;;4138457;28;19933;-46
2023/10/23 04:50:03;;;;;;;;;;;15.30;90.00;;;;;;4138643;28;19932;-46
2023/10/23 04:52:45;;;;;;;;;;;15.20;89.90;;;;;;4142066;28;19937;-49
2023/10/23 04:55:27;;;;;;;;;;;15.20;89.90;;;;;;4139175;28;20006;-49
2023/10/23 04:58:09;;;;;;;;;;;15.20;89.90;;;;;;4156756;28;20254;-47
2023/10/23 05:00:50;;;;;;;;;;;15.20;90.30;;;;;;4141547;28;19963;-48
2023/10/23 05:03:31;;;;;;;;;;;15.20;89.90;;;;;;4152641;28;20077;-45
2023/10/23 05:06:12;;;;;;;;;;;15.20;89.80;;;;;;4156020;28;20030;-47
2023/10/23 05:08:53;;;;;;;;;;;15.20;90.30;;;;;;4156116;28;20298;-48
2023/10/23 05:11:36;;;;;;;;;;;15.20;89.90;;;;;;4156618;28;20023;-47
2023/10/23 05:14:16;;;;;;;;;;;15.20;89.80;;;;;;4150562;28;19933;-47
2023/10/23 05:16:57;;;;;;;;;;;15.20;89.80;;;;;;4140007;28;19936;-49
2023/10/23 05:19:38;;;;;;;;;;;15.20;89.80;;;;;;4140693;28;20087;-48
2023/10/23 05:22:19;;;;;;;;;;;15.20;89.80;;;;;;4154008;28;19941;-49
2023/10/23 05:24:59;;;;;;;;;;;15.20;89.80;;;;;;4139941;28;19956;-47
2023/10/23 05:27:42;;;;;;;;;;;15.10;90.20;;;;;;4139072;28;19936;-46
2023/10/23 05:30:22;;;;;;;;;;;15.20;89.70;;;;;;4140751;28;20452;-47
2023/10/23 05:33:03;;;;;;;;;;;15.10;89.70;;;;;;4156085;28;19978;-50
2023/10/23 05:35:44;;;;;;;;;;;15.10;90.20;;;;;;4156426;28;20018;-51
2023/10/23 05:38:25;;;;;;;;;;;15.10;89.60;;;;;;4155866;28;19955;-47
2023/10/23 05:41:07;;;;;;;;;;;15.10;89.60;;;;;;4155842;28;20440;-47
2023/10/23 05:43:49;;;;;;;;;;;15.10;89.60;;;;;;4141614;28;19932;-51
2023/10/23 05:46:30;;;;;;;;;;;15.10;89.80;;;;;;4154485;28;19932;-53
2023/10/23 05:49:10;;;;;;;;;;;15.10;90.00;;;;;;4141131;28;19936;-50
2023/10/23 05:51:51;;;;;;;;;;;15.10;90.00;;;;;;4141245;28;19931;-53
2023/10/23 05:54:31;;;;;;;;;;;15.10;90.00;;;;;;4138123;28;19936;-49
2023/10/23 05:57:12;;;;;;;;;;;15.10;89.90;;;;;;4139772;28;20701;-49
2023/10/23 05:59:55;;;;;;;;;;;15.10;89.90;;;;;;4138905;28;19990;-51
2023/10/23 06:02:36;;;;;;;;;;;15.10;89.80;;;;;;4124041;28;19936;-53
2023/10/23 06:05:17;;;;;;;;;;;15.10;89.80;;;;;;4128218;28;19936;-52
2023/10/23 06:07:57;;;;;;;;;;;15.00;89.70;;;;;;4154424;28;19932;-52
2023/10/23 06:10:41;;;;;;;;;;;15.00;90.20;;;;;;4123699;28;19937;-53
2023/10/23 06:13:22;;;;;;;;;;;15.00;89.80;;;;;;4135347;28;19931;-58
2023/10/23 06:16:05;;;;;;;;;;;15.00;89.80;;;;;;4139010;28;20032;-57
2023/10/23 06:18:46;;;;;;;;;;;15.00;89.80;;;;;;4139333;28;19937;-57
2023/10/23 06:21:26;;;;;;;;;;;15.00;89.80;;;;;;4155713;28;19932;-47
2023/10/23 06:24:07;;;;;;;;;;;14.90;89.60;;;;;;4155212;28;19956;-47
2023/10/23 06:26:47;;;;;;;;;;;14.90;90.20;;;;;;4155583;28;20400;-50
2023/10/23 06:29:28;;;;;;;;;;;14.90;89.70;;;;;;4155984;28;19936;-50
2023/10/23 06:32:11;;;;;;;;;;;14.90;89.80;;;;;;4155196;28;19932;-49
2023/10/23 06:34:53;;;;;;;;;;;14.90;89.70;;;;;;4154102;28;20055;-49
2023/10/23 06:37:33;;;;;;;;;;;14.90;89.70;;;;;;4122950;28;19932;-48
2023/10/23 06:40:14;;;;;;;;;;;14.90;89.70;;;;;;4137652;28;19937;-49
2023/10/23 06:42:54;;;;;;;;;;;14.90;89.50;;;;;;4131644;28;20019;-48
2023/10/23 06:45:37;;;;;;;;;;;14.90;89.40;;;;;;4140550;28;20298;-49
2023/10/23 06:48:44;;;;;;;;;;;14.80;89.30;;;;;;4137095;28;19932;-50
2023/10/23 06:51:25;;;;;;;;;;;14.90;89.10;;;;;;4154873;28;19964;-48
2023/10/23 06:54:06;;;;;;;;;;;14.80;88.90;;;;;;4153455;28;20055;-48
2023/10/23 06:56:47;;;;;;;;;;;14.80;88.70;;;;;;4154277;28;19936;-47
2023/10/23 06:59:28;;;;;;;;;;;14.80;88.60;;;;;;4155234;28;20277;-49
2023/10/23 07:02:09;;;;;;;;;;;14.80;88.70;;;;;;4153952;28;20043;-48
2023/10/23 07:04:52;;;;;;;;;;;14.80;88.70;;;;;;4163733;28;19944;-49
2023/10/23 07:07:33;;;;;;;;;;;14.80;88.60;;;;;;4147165;28;19936;-48
2023/10/23 07:10:13;;;;;;;;;;;14.80;89.30;;;;;;4152521;28;19948;-48
2023/10/23 07:12:55;;;;;;;;;;;14.70;88.30;;;;;;4146905;28;19932;-48
2023/10/23 07:15:39;;;;;;;;;;;14.80;88.20;;;;;;4138568;28;19936;-49
2023/10/23 07:18:21;;;;;;;;;;;14.80;88.10;;;;;;4152781;28;20014;-48
2023/10/23 07:21:03;;;;;;;;;;;14.80;88.00;;;;;;4153814;28;19936;-47
2023/10/23 07:23:44;;;;;;;;;;;14.70;87.90;;;;;;4140589;28;19933;-49
2023/10/23 07:26:25;;;;;;;;;;;14.70;87.80;;;;;;4140041;28;20328;-47
2023/10/23 07:29:05;;;;;;;;;;;14.70;87.90;;;;;;4154256;28;19932;-48
2023/10/23 07:31:46;;;;;;;;;;;14.70;87.80;;;;;;4135684;28;19932;-47
2023/10/23 07:34:27;;;;;;;;;;;14.70;87.80;;;;;;4152664;28;19936;-48
2023/10/23 07:37:11;;;;;;;;;;;14.70;87.70;;;;;;4154206;28;20685;-48
2023/10/23 07:39:52;;;;;;;;;;;14.70;88.10;;;;;;4153172;28;19936;-47
2023/10/23 07:42:33;;;;;;;;;;;14.70;87.60;;;;;;4153977;28;20380;-50
2023/10/23 07:45:14;;;;;;;;;;;14.60;87.60;;;;;;4154625;28;19932;-50
2023/10/23 07:47:54;;;;;;;;;;;14.60;87.50;;;;;;4139766;28;20333;-46
2023/10/23 07:50:36;;;;;;;;;;;14.60;88.40;;;;;;4152537;28;20393;-47
2023/10/23 07:53:18;;;;;;;;;;;14.60;87.60;;;;;;4151134;28;19933;-47
2023/10/23 07:55:59;;;;;;;;;;;14.60;87.60;;;;;;4153576;28;20452;-48
2023/10/23 07:58:40;;;;;;;;;;;14.70;88.40;;;;;;4153203;28;19935;-49
2023/10/23 08:01:22;;;;;;;;;;;14.70;87.60;;;;;;4154325;28;19932;-47
2023/10/23 08:04:03;;;;;;;;;;;14.70;87.70;;;;;;4154133;28;20389;-49
2023/10/23 08:06:44;;;;;;;;;;;14.70;87.80;;;;;;4154662;28;19937;-48
2023/10/23 08:09:27;;;;;;;;;;;14.70;87.80;;;;;;4151080;28;19932;-48
2023/10/23 08:12:08;;;;;;;;;;;14.70;87.90;;;;;;4153513;28;19987;-48
2023/10/23 08:14:51;;;;;;;;;;;14.70;88.00;;;;;;4144520;28;19936;-49
2023/10/23 08:17:32;;;;;;;;;;;14.80;88.10;;;;;;4153972;28;19964;-48
2023/10/23 08:20:22;;;;;;;;;;;14.80;88.10;;;;;;4153366;28;19936;-51
2023/10/23 08:23:02;;;;;;;;;;;14.70;88.10;;;;;;4156587;28;19976;-48
2023/10/23 08:25:45;;;;;;;;;;;14.70;88.10;;;;;;4156953;28;19932;-51
2023/10/23 08:28:26;;;;;;;;;;;14.70;88.10;;;;;;4157400;28;19939;-49
2023/10/23 08:31:09;;;;;;;;;;;14.70;88.10;;;;;;4157437;28;19955;-47
2023/10/23 08:34:05;;;;;;;;;;;14.70;88.10;;;;;;4156118;28;19936;-52
2023/10/23 08:36:46;;;;;;;;;;;14.80;88.30;;;;;;4156204;28;20409;-51
2023/10/23 08:39:27;;;;;;;;;;;14.80;88.30;;;;;;4156814;28;19932;-70
2023/10/23 08:42:09;;;;;;;;;;;14.80;88.30;;;;;;4157265;28;19978;-49
2023/10/23 08:44:50;;;;;;;;;;;14.80;88.30;;;;;;4156657;28;19995;-47
2023/10/23 08:47:31;;;;;;;;;;;14.80;88.30;;;;;;4156777;28;19932;-48
2023/10/23 08:50:12;;;;;;;;;;;14.80;88.30;;;;;;4142832;28;19974;-48
2023/10/23 08:52:57;;;;;;;;;;;14.80;88.40;;;;;;4140568;28;19936;-47
2023/10/23 08:55:38;;;;;;;;;;;14.80;88.40;;;;;;4151357;28;20393;-48
2023/10/23 08:58:21;;;;;;;;;;;14.80;88.60;;;;;;4157136;28;19960;-48
2023/10/23 09:01:03;;;;;;;;;;;14.80;88.60;;;;;;4156502;28;20380;-47
2023/10/23 09:03:44;;;;;;;;;;;14.90;88.70;;;;;;4156838;28;19932;-51
2023/10/23 09:06:43;;;;;;;;;;;14.90;88.80;;;;;;4155965;28;19963;-47
2023/10/23 09:09:24;;;;;;;;;;;14.80;88.70;;;;;;4156507;28;19936;-48
2023/10/23 09:12:06;;;;;;;;;;;14.80;88.80;;;;;;4156766;28;19940;-49
2023/10/23 09:14:48;;;;;;;;;;;14.80;88.90;;;;;;4156879;28;20393;-48
2023/10/23 09:17:29;;;;;;;;;;;14.90;89.00;;;;;;4156902;28;19932;-48
2023/10/23 09:20:20;;;;;;;;;;;14.90;89.10;;;;;;4151491;28;19963;-48
2023/10/23 09:23:02;;;;;;;;;;;14.90;89.20;;;;;;4154955;28;20424;-52
2023/10/23 09:25:44;;;;;;;;;;;14.90;89.30;;;;;;4155870;28;19933;-49
2023/10/23 09:28:24;;;;;;;;;;;14.90;89.30;;;;;;4141819;28;19936;-51
2023/10/23 09:31:07;;;;;;;;;;;14.90;89.30;;;;;;4143451;28;20031;-48
2023/10/23 09:33:51;;;;;;;;;;;14.90;89.40;;;;;;4155135;28;19936;-51
2023/10/23 09:36:33;;;;;;;;;;;14.80;89.30;;;;;;4156456;28;19936;-47
2023/10/23 09:39:15;;;;;;;;;;;14.90;90.10;;;;;;4156170;28;19935;-48
2023/10/23 09:41:56;;;;;;;;;;;14.80;89.40;;;;;;4156297;28;19932;-48
2023/10/23 09:44:38;;;;;;;;;;;14.80;89.40;;;;;;4155888;28;19936;-49
2023/10/23 09:47:21;;;;;;;;;;;14.90;89.40;;;;;;4156715;28;20320;-47
2023/10/23 09:50:03;;;;;;;;;;;14.90;89.50;;;;;;4142899;28;19936;-48
2023/10/23 09:52:45;;;;;;;;;;;14.90;89.40;;;;;;4140924;28;20128;-49
2023/10/23 09:55:27;;;;;;;;;;;14.90;89.50;;;;;;4124465;28;19932;-50
2023/10/23 09:58:12;;;;;;;;;;;14.90;89.50;;;;;;4135414;28;19975;-51
2023/10/23 10:00:55;;;;;;;;;;;14.90;89.60;;;;;;4139610;28;20064;-52
2023/10/23 10:03:40;;;;;;;;;;;14.90;89.60;;;;;;4139364;28;19933;-47
2023/10/23 10:06:22;;;;;;;;;;;14.90;89.60;;;;;;4139503;28;20393;-48
2023/10/23 10:09:04;;;;;;;;;;;14.90;89.70;;;;;;4136668;28;20055;-47
2023/10/23 10:11:45;;;;;;;;;;;14.90;89.70;;;;;;4154202;28;19932;-48
2023/10/23 10:14:27;;;;;;;;;;;14.90;89.80;;;;;;4155872;28;19933;-49
2023/10/23 10:17:10;;;;;;;;;;;14.90;89.80;;;;;;4155412;28;19932;-49
2023/10/23 10:19:52;;;;;;;;;;;14.90;89.80;;;;;;4139729;28;19933;-49
2023/10/23 10:22:35;;;;;;;;;;;15.00;90.00;;;;;;4139678;28;19937;-49
2023/10/23 10:25:17;;;;;;;;;;;15.00;90.00;;;;;;4135597;28;19991;-49
2023/10/23 10:27:57;;;;;;;;;;;15.00;90.00;;;;;;4139604;28;19932;-47
2023/10/23 10:30:40;;;;;;;;;;;15.00;90.00;;;;;;4138849;28;19933;-47
2023/10/23 10:33:22;;;;;;;;;;;15.00;90.00;;;;;;4138648;28;19936;-48
2023/10/23 10:36:17;;;;;;;;;;;15.00;90.00;;;;;;4136922;28;19948;-48
2023/10/23 10:39:17;;;;;;;;;;;15.00;90.00;;;;;;4142479;28;19932;-48
2023/10/23 10:42:03;;;;;;;;;;;15.00;90.50;;;;;;4140370;28;19932;-49
2023/10/23 10:44:51;;;;;;;;;;;15.00;90.10;;;;;;4154134;28;20297;-50
2023/10/23 10:47:35;;;;;;;;;;;15.10;90.20;;;;;;4138757;28;20108;-48
2023/10/23 10:50:33;;;;;;;;;;;15.10;90.20;;;;;;4148269;28;19944;-49
2023/10/23 10:53:15;;;;;;;;;;;15.20;90.20;;;;;;4153055;28;19936;-50
2023/10/23 10:55:56;;;;;;;;;;;15.20;90.20;;;;;;4139591;28;19931;-50
2023/10/23 10:58:37;;;;;;;;;;;15.20;90.20;;;;;;4153873;28;19948;-52
2023/10/23 11:01:21;;;;;;;;;;;15.20;90.20;;;;;;4154356;28;20286;-52
2023/10/23 11:04:02;;;;;;;;;;;15.20;90.20;;;;;;4152337;28;20377;-49
2023/10/23 11:06:43;;;;;;;;;;;15.30;90.50;;;;;;4154666;28;20005;-49
2023/10/23 11:09:25;;;;;;;;;;;15.30;90.10;;;;;;4154921;28;19936;-48
2023/10/23 11:12:07;;;;;;;;;;;15.30;90.10;;;;;;4165334;28;19982;-48
2023/10/23 11:14:48;;;;;;;;;;;15.30;90.10;;;;;;4154789;28;19933;-49
2023/10/23 11:17:29;;;;;;;;;;;15.40;90.10;;;;;;4138804;28;20392;-51
2023/10/23 11:20:11;;;;;;;;;;;15.40;90.10;;;;;;4138310;28;19999;-51
2023/10/23 11:22:52;;;;;;;;;;;15.40;90.10;;;;;;4138872;28;19936;-50
2023/10/23 11:25:36;;;;;;;;;;;15.40;90.10;;;;;;4145511;28;20286;-50
2023/10/23 11:28:17;;;;;;;;;;;15.50;90.10;;;;;;4134357;28;19941;-51
2023/10/23 11:30:59;;;;;;;;;;;15.50;90.10;;;;;;4139265;28;20513;-49
2023/10/23 11:33:40;;;;;;;;;;;15.50;90.10;;;;;;4139551;28;19932;-50
2023/10/23 11:36:21;;;;;;;;;;;15.50;90.10;;;;;;4136222;28;19936;-49
2023/10/23 11:39:07;;;;;;;;;;;15.50;90.10;;;;;;4136273;28;19974;-52
2023/10/23 11:41:56;;;;;;;;;;;15.50;90.10;;;;;;4150665;28;19974;-52
2023/10/23 11:44:37;;;;;;;;;;;15.60;90.10;;;;;;4150660;28;20439;-50
2023/10/23 11:47:18;;;;;;;;;;;15.60;90.50;;;;;;4137248;28;19936;-49
2023/10/23 11:50:00;;;;;;;;;;;15.60;90.10;;;;;;4150668;28;19932;-49
2023/10/23 11:52:44;;;;;;;;;;;15.60;90.10;;;;;;4135681;28;19936;-52
2023/10/23 11:55:26;;;;;;;;;;;15.60;90.50;;;;;;4150860;28;19991;-50
2023/10/23 11:58:08;;;;;;;;;;;15.70;90.10;;;;;;4157041;28;19936;-50
2023/10/23 12:00:49;;;;;;;;;;;15.70;90.10;;;;;;4148086;28;19933;-54
2023/10/23 12:03:29;;;;;;;;;;;15.70;90.20;;;;;;4141636;28;20453;-52
2023/10/23 12:06:10;;;;;;;;;;;15.70;90.20;;;;;;4141537;28;19945;-53
2023/10/23 12:08:51;;;;;;;;;;;15.70;90.20;;;;;;4157921;28;19932;-53
2023/10/23 12:11:32;;;;;;;;;;;15.80;90.70;;;;;;4157578;28;20557;-51
2023/10/23 12:14:14;;;;;;;;;;;15.80;90.30;;;;;;4157061;28;20051;-53
2023/10/23 12:16:55;;;;;;;;;;;15.80;90.30;;;;;;4155992;28;20010;-52
2023/10/23 12:19:36;;;;;;;;;;;15.80;90.70;;;;;;4152771;28;19936;-51
2023/10/23 12:22:17;;;;;;;;;;;15.80;90.30;;;;;;4153558;28;19940;-51
2023/10/23 12:24:58;;;;;;;;;;;15.80;90.30;;;;;;4155174;28;19951;-57
2023/10/23 12:27:41;;;;;;;;;;;15.80;90.30;;;;;;4140213;28;19940;-53
2023/10/23 12:30:22;;;;;;;;;;;15.80;90.50;;;;;;4143323;28;19933;-52
2023/10/23 12:33:08;;;;;;;;;;;15.90;91.00;;;;;;4139580;28;20310;-51
2023/10/23 12:35:54;;;;;;;;;;;15.90;90.60;;;;;;4151458;28;19932;-51
2023/10/23 12:38:35;;;;;;;;;;;15.90;90.60;;;;;;4141882;28;19932;-51
2023/10/23 12:41:16;;;;;;;;;;;15.90;90.70;;;;;;4140221;28;19940;-49
2023/10/23 12:43:57;;;;;;;;;;;15.90;90.70;;;;;;4140075;28;19975;-48
2023/10/23 12:46:39;;;;;;;;;;;15.90;90.70;;;;;;4139670;28;20389;-49
2023/10/23 12:49:20;;;;;;;;;;;15.90;90.80;;;;;;4151349;28;19955;-51
2023/10/23 12:52:01;;;;;;;;;;;15.90;90.80;;;;;;4139638;28;19935;-50
2023/10/23 12:54:41;;;;;;;;;;;15.90;90.90;;;;;;4153709;28;19936;-50
2023/10/23 12:57:21;;;;;;;;;;;15.90;91.40;;;;;;4141496;28;19933;-50
2023/10/23 13:00:02;;;;;;;;;;;15.90;91.00;;;;;;4151718;28;20293;-52
2023/10/23 13:02:44;;;;;;;;;;;15.90;91.30;;;;;;4156202;28;19932;-50
2023/10/23 13:05:25;;;;;;;;;;;15.90;91.70;;;;;;4156519;28;20006;-45
2023/10/23 13:08:06;;;;;;;;;;;16.00;92.10;;;;;;4156255;28;20423;-52
2023/10/23 13:10:47;;;;;;;;;;;16.00;92.40;;;;;;4156014;28;20439;-52
2023/10/23 13:13:29;;;;;;;;;;;16.00;92.20;;;;;;4156542;28;19990;-48
2023/10/23 13:16:10;;;;;;;;;;;16.00;92.10;;;;;;4141419;28;19933;-51
2023/10/23 13:18:54;;;;;;;;;;;16.00;92.00;;;;;;4155559;28;19932;-48
2023/10/23 13:21:35;;;;;;;;;;;16.00;92.00;;;;;;4155807;28;19975;-52
2023/10/23 13:24:17;;;;;;;;;;;16.00;91.90;;;;;;4152412;28;19936;-49
2023/10/23 13:26:59;;;;;;;;;;;16.00;91.90;;;;;;4139628;28;19937;-49
2023/10/23 13:29:40;;;;;;;;;;;16.00;91.90;;;;;;4141295;28;20398;-49
2023/10/23 13:32:20;;;;;;;;;;;16.00;91.90;;;;;;4138789;28;19972;-51
2023/10/23 13:35:04;;;;;;;;;;;16.00;91.90;;;;;;4139848;28;19933;-51
2023/10/23 13:37:45;;;;;;;;;;;15.90;91.90;;;;;;4154041;28;20404;-52
2023/10/23 13:40:25;;;;;;;;;;;15.90;91.90;;;;;;4154351;28;19932;-53
2023/10/23 13:43:06;;;;;;;;;;;15.90;91.90;;;;;;4155475;28;19932;-52
2023/10/23 13:45:47;;;;;;;;;;;15.90;91.90;;;;;;4155659;28;19933;-50
2023/10/23 13:48:28;;;;;;;;;;;15.90;91.90;;;;;;4155515;28;19987;-52
2023/10/23 13:51:10;;;;;;;;;;;15.90;91.80;;;;;;4154196;28;20070;-49
2023/10/23 13:53:51;;;;;;;;;;;15.90;91.80;;;;;;4154304;28;19931;-48
2023/10/23 13:56:32;;;;;;;;;;;15.90;91.80;;;;;;4155604;28;20008;-49
2023/10/23 13:59:13;;;;;;;;;;;15.90;91.80;;;;;;4153876;28;20038;-53
2023/10/23 14:01:54;;;;;;;;;;;15.90;91.80;;;;;;4137728;28;19989;-53
2023/10/23 14:04:35;;;;;;;;;;;15.90;91.80;;;;;;4141829;28;19933;-49
2023/10/23 14:07:17;;;;;;;;;;;15.90;91.80;;;;;;4150514;28;19951;-49
2023/10/23 14:09:57;;;;;;;;;;;15.90;91.80;;;;;;4152239;28;19936;-49
2023/10/23 14:12:38;;;;;;;;;;;15.90;91.70;;;;;;4155490;28;20029;-48
2023/10/23 14:15:19;;;;;;;;;;;15.90;91.70;;;;;;4155105;28;19932;-52
2023/10/23 14:17:59;;;;;;;;;;;15.90;91.70;;;;;;4138747;28;19975;-52
2023/10/23 14:20:41;;;;;;;;;;;15.90;91.80;;;;;;4138753;28;19934;-50
2023/10/23 14:23:23;;;;;;;;;;;15.90;91.80;;;;;;4138929;28;19953;-51
2023/10/23 14:26:07;;;;;;;;;;;15.90;91.80;;;;;;4139325;28;19936;-50
2023/10/23 14:28:48;;;;;;;;;;;15.90;91.80;;;;;;4139413;28;19932;-51
2023/10/23 14:31:29;;;;;;;;;;;15.90;91.80;;;;;;4153175;28;19936;-52
2023/10/23 14:34:10;;;;;;;;;;;15.80;91.70;;;;;;4137792;28;19936;-49
2023/10/23 14:36:51;;;;;;;;;;;15.90;91.80;;;;;;4141211;28;19937;-49
2023/10/23 14:39:33;;;;;;;;;;;15.90;91.80;;;;;;4146794;28;19932;-48
2023/10/23 14:42:14;;;;;;;;;;;15.90;91.80;;;;;;4154305;28;20298;-53
2023/10/23 14:44:55;;;;;;;;;;;15.90;91.80;;;;;;4153843;28;20006;-52
2023/10/23 14:47:37;;;;;;;;;;;15.90;91.80;;;;;;4139902;28;19936;-52
2023/10/23 14:50:17;;;;;;;;;;;15.90;91.80;;;;;;4137787;28;19935;-52
2023/10/23 14:52:58;;;;;;;;;;;15.90;91.80;;;;;;4141958;28;19931;-49
2023/10/23 14:55:40;;;;;;;;;;;15.80;91.80;;;;;;4138694;28;19936;-47
2023/10/23 14:58:21;;;;;;;;;;;15.80;91.80;;;;;;4154340;28;19936;-52
2023/10/23 15:01:05;;;;;;;;;;;15.90;92.20;;;;;;4151513;28;20067;-50
2023/10/23 15:03:46;;;;;;;;;;;15.80;91.80;;;;;;4138151;28;19936;-49
2023/10/23 15:06:26;;;;;;;;;;;15.80;91.80;;;;;;4137889;28;20071;-49
2023/10/23 15:09:08;;;;;;;;;;;15.80;91.80;;;;;;4153595;28;20022;-52
2023/10/23 15:11:50;;;;;;;;;;;15.80;91.80;;;;;;4153082;28;19936;-48
2023/10/23 15:14:30;;;;;;;;;;;15.80;91.80;;;;;;4143794;28;19932;-50
2023/10/23 15:17:11;;;;;;;;;;;15.80;91.80;;;;;;4137714;28;19937;-48
2023/10/23 15:19:55;;;;;;;;;;;15.80;91.80;;;;;;4139468;28;20071;-47
2023/10/23 15:22:37;;;;;;;;;;;15.80;91.80;;;;;;4138324;28;19936;-47
2023/10/23 15:25:17;;;;;;;;;;;15.80;92.20;;;;;;4138006;28;19936;-48
2023/10/23 15:28:00;;;;;;;;;;;15.80;91.80;;;;;;4138376;28;19964;-48
2023/10/23 15:30:40;;;;;;;;;;;15.80;91.80;;;;;;4138018;28;19936;-49
2023/10/23 15:33:21;;;;;;;;;;;15.80;91.90;;;;;;4139688;28;19932;-49
2023/10/23 15:36:02;;;;;;;;;;;15.80;91.90;;;;;;4154399;28;19936;-47
2023/10/23 15:38:43;;;;;;;;;;;15.80;91.90;;;;;;4154469;28;20067;-48
2023/10/23 15:41:23;;;;;;;;;;;15.80;91.90;;;;;;4154748;28;19932;-47